createdAt,value
2022-08-31T00:02:42.299Z,100.00
2022-08-31T00:05:11.039Z,100.00
2022-08-31T00:07:38.210Z,100.00
2022-08-31T00:10:14.959Z,100.00
2022-08-31T00:12:43.198Z,100.00
2022-08-31T00:15:13.581Z,100.00
2022-08-31T00:17:41.471Z,100.00
2022-08-31T00:20:32.782Z,100.00
2022-08-31T00:22:58.306Z,100.00
2022-08-31T00:25:25.207Z,100.00
2022-08-31T00:27:52.290Z,100.00
2022-08-31T00:30:19.231Z,100.00
2022-08-31T00:32:46.033Z,100.00
2022-08-31T00:35:14.795Z,100.00
2022-08-31T00:37:41.585Z,100.00
2022-08-31T00:40:09.469Z,100.00
2022-08-31T00:42:36.388Z,100.00
2022-08-31T00:45:04.921Z,100.00
2022-08-31T00:47:32.127Z,100.00
2022-08-31T00:49:59.903Z,100.00
2022-08-31T00:52:37.974Z,100.00
2022-08-31T00:55:12.700Z,100.00
2022-08-31T00:57:43.500Z,100.00
2022-08-31T01:00:18.448Z,100.00
2022-08-31T01:02:46.232Z,100.00
2022-08-31T01:05:14.452Z,100.00
2022-08-31T01:07:42.209Z,100.00
2022-08-31T01:10:10.430Z,100.00
2022-08-31T01:12:37.589Z,100.00
2022-08-31T01:15:07.431Z,100.00
2022-08-31T01:17:38.345Z,100.00
2022-08-31T01:20:19.506Z,100.00
2022-08-31T01:22:52.259Z,100.00
2022-08-31T01:25:20.340Z,100.00
2022-08-31T01:27:47.657Z,100.00
2022-08-31T01:30:23.164Z,100.00
2022-08-31T01:32:50.171Z,100.00
2022-08-31T01:35:17.189Z,100.00
2022-08-31T01:37:44.323Z,100.00
2022-08-31T01:40:12.299Z,100.00
2022-08-31T01:42:39.130Z,100.00
2022-08-31T01:45:06.627Z,100.00
2022-08-31T01:47:33.436Z,100.00
2022-08-31T01:50:00.245Z,100.00
2022-08-31T01:52:28.186Z,100.00
2022-08-31T01:54:56.045Z,100.00
2022-08-31T01:57:33.478Z,100.00
2022-08-31T02:00:04.872Z,100.00
2022-08-31T02:02:32.282Z,100.00
2022-08-31T02:04:59.270Z,100.00
2022-08-31T02:07:27.075Z,100.00
2022-08-31T02:09:54.886Z,100.00
2022-08-31T02:12:21.754Z,100.00
2022-08-31T02:14:48.595Z,100.00
2022-08-31T02:17:15.744Z,100.00
2022-08-31T02:19:42.587Z,100.00
2022-08-31T02:22:09.458Z,100.00
2022-08-31T02:24:36.526Z,100.00
2022-08-31T02:27:03.678Z,100.00
2022-08-31T02:29:30.492Z,100.00
2022-08-31T02:31:58.682Z,100.00
2022-08-31T02:34:25.707Z,100.00
2022-08-31T02:36:52.676Z,100.00
2022-08-31T02:39:19.464Z,100.00
2022-08-31T02:41:47.353Z,100.00
2022-08-31T02:44:14.349Z,100.00
2022-08-31T02:46:41.081Z,100.00
2022-08-31T02:49:07.943Z,100.00
2022-08-31T02:51:34.780Z,100.00
2022-08-31T02:54:01.500Z,100.00
2022-08-31T02:56:28.268Z,100.00
2022-08-31T02:58:55.400Z,100.00
2022-08-31T03:01:24.063Z,100.00
2022-08-31T03:03:51.234Z,100.00
2022-08-31T03:06:19.904Z,100.00
2022-08-31T03:08:47.645Z,100.00
2022-08-31T03:11:15.059Z,100.00
2022-08-31T03:13:42.663Z,100.00
2022-08-31T03:16:13.367Z,100.00
2022-08-31T03:18:40.247Z,100.00
2022-08-31T03:21:07.016Z,100.00
2022-08-31T03:23:33.775Z,100.00
2022-08-31T03:26:00.674Z,100.00
2022-08-31T03:28:27.438Z,100.00
2022-08-31T03:30:54.316Z,100.00
2022-08-31T03:33:21.134Z,100.00
2022-08-31T03:35:47.889Z,100.00
2022-08-31T03:38:16.201Z,100.00
2022-08-31T03:40:44.283Z,100.00
2022-08-31T03:43:12.069Z,100.00
2022-08-31T03:45:40.604Z,100.00
2022-08-31T03:48:12.258Z,100.00
2022-08-31T03:50:40.795Z,100.00
2022-08-31T03:53:09.120Z,100.00
2022-08-31T03:55:39.415Z,100.00
2022-08-31T03:58:07.697Z,100.00
2022-08-31T04:00:35.295Z,100.00
2022-08-31T04:03:02.435Z,100.00
2022-08-31T04:05:31.192Z,100.00
2022-08-31T04:07:58.655Z,100.00
2022-08-31T04:10:25.818Z,100.00
2022-08-31T04:12:52.654Z,100.00
2022-08-31T04:15:19.530Z,100.00
2022-08-31T04:17:47.097Z,100.00
2022-08-31T04:20:14.662Z,100.00
2022-08-31T04:22:42.118Z,100.00
2022-08-31T04:25:10.584Z,100.00
2022-08-31T04:27:38.608Z,100.00
2022-08-31T04:30:08.129Z,100.00
2022-08-31T04:32:35.952Z,100.00
2022-08-31T04:35:03.817Z,100.00
2022-08-31T04:37:30.948Z,100.00
2022-08-31T04:39:59.264Z,100.00
2022-08-31T04:42:28.321Z,100.00
2022-08-31T04:44:55.145Z,100.00
2022-08-31T04:47:23.034Z,100.00
2022-08-31T04:49:49.973Z,100.00
2022-08-31T04:52:19.241Z,100.00
2022-08-31T04:54:50.703Z,100.00
2022-08-31T04:57:17.463Z,100.00
2022-08-31T04:59:44.195Z,100.00
2022-08-31T05:02:11.020Z,100.00
2022-08-31T05:04:37.975Z,100.00
2022-08-31T05:07:04.749Z,100.00
2022-08-31T05:09:31.556Z,100.00
2022-08-31T05:11:58.462Z,100.00
2022-08-31T05:14:25.605Z,100.00
2022-08-31T05:16:53.152Z,100.00
2022-08-31T05:19:21.043Z,100.00
2022-08-31T05:21:48.138Z,100.00
2022-08-31T05:24:22.973Z,100.00
2022-08-31T05:26:54.431Z,100.00
2022-08-31T05:29:23.823Z,100.00
2022-08-31T05:31:52.628Z,100.00
2022-08-31T05:34:21.017Z,100.00
2022-08-31T05:36:51.718Z,100.00
2022-08-31T05:39:18.502Z,100.00
2022-08-31T05:41:48.439Z,100.00
2022-08-31T05:44:16.879Z,100.00
2022-08-31T05:46:44.021Z,100.00
2022-08-31T05:49:11.677Z,100.00
2022-08-31T05:51:39.735Z,100.00
2022-08-31T05:54:07.842Z,100.00
2022-08-31T05:56:34.984Z,100.00
2022-08-31T05:59:01.892Z,100.00
2022-08-31T06:01:32.099Z,100.00
2022-08-31T06:04:00.948Z,100.00
2022-08-31T06:06:27.944Z,100.00
2022-08-31T06:08:54.747Z,100.00
2022-08-31T06:28:40.759Z,73.81
2022-08-31T06:31:12.327Z,61.21
2022-08-31T06:33:40.091Z,57.36
2022-08-31T06:36:12.386Z,51.52
2022-08-31T06:38:40.563Z,46.04
2022-08-31T06:41:25.660Z,44.96
2022-08-31T06:43:52.940Z,43.79
2022-08-31T06:46:20.835Z,42.43
2022-08-31T06:48:48.458Z,44.46
2022-08-31T06:51:15.225Z,42.94
2022-08-31T06:53:42.714Z,40.55
2022-08-31T06:56:21.397Z,39.86
2022-08-31T06:58:54.161Z,41.08
2022-08-31T07:01:35.703Z,37.43
2022-08-31T07:04:07.261Z,37.07
2022-08-31T07:06:39.947Z,40.92
2022-08-31T07:09:09.673Z,40.53
2022-08-31T07:11:44.079Z,37.75
2022-08-31T07:14:13.894Z,37.49
2022-08-31T07:16:42.198Z,36.88
2022-08-31T07:19:09.998Z,37.27
2022-08-31T07:21:41.332Z,37.46
2022-08-31T07:24:08.974Z,37.50
2022-08-31T07:26:47.870Z,37.36
2022-08-31T07:29:17.484Z,36.47
2022-08-31T07:31:47.558Z,38.10
2022-08-31T07:34:20.590Z,36.04
2022-08-31T07:37:06.734Z,37.88
2022-08-31T07:39:52.261Z,35.73
2022-08-31T07:42:32.742Z,36.06
2022-08-31T07:45:02.488Z,36.76
2022-08-31T07:47:30.316Z,36.79
2022-08-31T07:49:58.611Z,35.70
2022-08-31T07:52:31.394Z,35.56
2022-08-31T07:55:06.609Z,35.07
2022-08-31T07:57:42.737Z,35.64
2022-08-31T08:00:15.135Z,34.86
2022-08-31T08:02:46.443Z,34.18
2022-08-31T08:05:24.462Z,32.54
2022-08-31T08:07:58.667Z,32.80
2022-08-31T08:10:26.439Z,32.32
2022-08-31T08:13:04.946Z,35.45
2022-08-31T08:15:35.560Z,34.33
2022-08-31T08:18:04.459Z,33.31
2022-08-31T08:20:37.205Z,33.04
2022-08-31T08:23:14.631Z,32.86
2022-08-31T08:25:43.329Z,31.68
2022-08-31T08:31:06.171Z,31.82
2022-08-31T08:33:35.360Z,33.41
2022-08-31T08:36:07.789Z,34.02
2022-08-31T08:38:38.240Z,35.00
2022-08-31T08:41:14.384Z,32.83
2022-08-31T08:43:53.549Z,32.30
2022-08-31T08:46:40.397Z,34.15
2022-08-31T08:49:19.659Z,33.84
2022-08-31T08:51:49.827Z,34.16
2022-08-31T08:54:26.908Z,34.43
2022-08-31T08:56:53.662Z,34.16
2022-08-31T08:59:20.707Z,33.95
2022-08-31T09:01:49.652Z,33.88
2022-08-31T09:04:31.036Z,33.67
2022-08-31T09:07:27.337Z,33.31
2022-08-31T09:10:03.108Z,33.06
2022-08-31T09:13:15.227Z,32.36
2022-08-31T09:16:20.727Z,32.50
2022-08-31T09:19:03.400Z,32.22
2022-08-31T09:21:37.186Z,32.87
2022-08-31T09:24:05.253Z,34.48
2022-08-31T09:26:56.399Z,35.03
2022-08-31T09:29:30.345Z,32.81
2022-08-31T09:32:05.975Z,33.71
2022-08-31T09:34:37.453Z,33.62
2022-08-31T09:37:21.615Z,34.55
2022-08-31T09:39:50.704Z,33.71
2022-08-31T09:42:20.317Z,34.13
2022-08-31T09:44:50.899Z,35.27
2022-08-31T09:47:48.133Z,34.45
2022-08-31T09:50:35.579Z,34.86
2022-08-31T09:53:43.318Z,34.88
2022-08-31T09:56:15.881Z,34.10
2022-08-31T09:58:50.934Z,34.51
2022-08-31T10:01:45.102Z,34.93
2022-08-31T10:04:18.240Z,35.65
2022-08-31T10:06:48.475Z,35.11
2022-08-31T10:09:36.289Z,35.03
2022-08-31T10:12:10.814Z,35.01
2022-08-31T10:15:04.158Z,34.82
2022-08-31T10:18:12.030Z,35.87
2022-08-31T10:20:46.604Z,35.96
2022-08-31T10:23:56.401Z,35.58
2022-08-31T10:26:46.593Z,35.08
2022-08-31T10:29:44.391Z,34.97
2022-08-31T10:32:35.608Z,35.41
2022-08-31T10:35:28.754Z,36.16
2022-08-31T10:38:08.680Z,35.33
2022-08-31T10:40:47.668Z,36.52
2022-08-31T10:43:21.586Z,36.17
2022-08-31T10:45:52.534Z,35.72
2022-08-31T10:48:20.782Z,36.06
2022-08-31T10:50:53.391Z,36.21
2022-08-31T10:53:50.771Z,35.85
2022-08-31T10:56:24.090Z,35.85
2022-08-31T10:59:09.619Z,36.32
2022-08-31T11:01:42.443Z,35.64
2022-08-31T11:04:34.580Z,36.68
2022-08-31T11:07:08.481Z,35.37
2022-08-31T11:09:45.065Z,35.06
2022-08-31T11:12:23.955Z,35.50
2022-08-31T11:14:53.473Z,34.23
2022-08-31T11:17:20.180Z,34.30
2022-08-31T11:19:51.371Z,34.39
2022-08-31T11:22:41.334Z,35.11
2022-08-31T11:25:26.748Z,34.46
2022-08-31T11:28:05.944Z,33.70
2022-08-31T11:30:41.751Z,34.11
2022-08-31T11:33:19.936Z,33.44
2022-08-31T11:35:49.600Z,33.77
2022-08-31T11:39:13.586Z,33.97
2022-08-31T11:41:51.207Z,33.23
2022-08-31T11:44:29.985Z,33.00
2022-08-31T11:47:28.906Z,34.00
2022-08-31T11:50:04.056Z,33.94
2022-08-31T11:52:41.211Z,34.97
2022-08-31T11:55:22.449Z,35.20
2022-08-31T11:58:07.501Z,34.16
2022-08-31T12:01:03.141Z,34.55
2022-08-31T12:03:52.685Z,35.19
2022-08-31T12:06:26.721Z,35.44
2022-08-31T12:09:11.357Z,35.02
2022-08-31T12:11:41.997Z,35.03
2022-08-31T12:14:21.868Z,35.97
2022-08-31T12:17:18.105Z,35.07
2022-08-31T12:20:01.726Z,33.65
2022-08-31T12:22:53.378Z,34.35
2022-08-31T12:25:49.357Z,34.22
2022-08-31T12:28:32.424Z,34.47
2022-08-31T12:31:06.022Z,34.04
2022-08-31T12:33:36.704Z,33.84
2022-08-31T12:36:18.496Z,34.68
2022-08-31T12:38:46.329Z,33.55
2022-08-31T12:41:14.722Z,34.32
2022-08-31T12:43:49.226Z,33.90
2022-08-31T12:46:37.726Z,34.90
2022-08-31T12:49:37.454Z,35.09
2022-08-31T12:52:23.985Z,34.39
2022-08-31T12:55:09.513Z,34.46
2022-08-31T12:58:02.447Z,34.46
2022-08-31T13:00:33.466Z,35.17
2022-08-31T13:03:14.545Z,35.82
2022-08-31T13:05:41.980Z,34.85
2022-08-31T13:08:24.221Z,34.58
2022-08-31T13:10:51.820Z,35.05
2022-08-31T13:13:27.654Z,33.46
2022-08-31T13:16:04.825Z,33.54
2022-08-31T13:18:31.743Z,34.35
2022-08-31T13:21:06.090Z,33.69
2022-08-31T13:23:40.945Z,34.75
2022-08-31T13:26:27.994Z,34.01
2022-08-31T13:28:57.615Z,33.88
2022-08-31T13:31:31.664Z,33.58
2022-08-31T13:34:07.532Z,34.30
2022-08-31T13:36:39.957Z,34.75
2022-08-31T13:39:28.908Z,35.40
2022-08-31T13:42:12.815Z,34.55
2022-08-31T13:44:46.285Z,35.93
2022-08-31T13:47:23.661Z,35.18
2022-08-31T13:49:53.345Z,35.62
2022-08-31T13:52:23.944Z,36.06
2022-08-31T13:55:09.982Z,36.11
2022-08-31T13:57:38.575Z,35.36
2022-08-31T14:00:32.579Z,35.30
2022-08-31T14:03:32.226Z,36.27
2022-08-31T14:06:26.109Z,35.75
2022-08-31T14:09:17.081Z,35.72
2022-08-31T14:11:53.570Z,36.28
2022-08-31T14:14:35.710Z,35.39
2022-08-31T14:17:03.541Z,36.35
2022-08-31T14:19:32.877Z,35.34
2022-08-31T14:22:28.250Z,34.65
2022-08-31T14:24:55.799Z,35.21
2022-08-31T14:27:23.742Z,35.34
2022-08-31T14:29:52.356Z,35.11
2022-08-31T14:32:22.170Z,34.74
2022-08-31T14:34:51.278Z,35.08
2022-08-31T14:37:23.497Z,34.66
2022-08-31T14:39:55.343Z,35.17
2022-08-31T14:42:36.495Z,34.46
2022-08-31T14:45:07.019Z,34.65
2022-08-31T14:47:44.193Z,34.13
2022-08-31T14:50:18.292Z,34.16
2022-08-31T14:52:53.909Z,34.10
2022-08-31T14:55:22.387Z,34.18
2022-08-31T14:57:58.403Z,34.61
2022-08-31T15:00:26.398Z,34.26
2022-08-31T15:02:54.005Z,34.13
2022-08-31T15:05:24.078Z,34.31
2022-08-31T15:07:53.164Z,34.21
2022-08-31T15:10:24.463Z,33.82
2022-08-31T15:12:52.647Z,34.25
2022-08-31T15:15:20.987Z,33.79
2022-08-31T15:17:51.485Z,33.47
2022-08-31T15:20:21.191Z,32.57
2022-08-31T15:22:48.481Z,33.12
2022-08-31T15:25:17.212Z,32.77
2022-08-31T15:27:44.535Z,32.81
2022-08-31T15:30:19.007Z,33.36
2022-08-31T15:32:48.269Z,33.23
2022-08-31T15:35:23.582Z,33.40
2022-08-31T15:37:59.742Z,33.03
2022-08-31T15:40:29.550Z,33.90
2022-08-31T15:42:56.880Z,33.79
2022-08-31T15:45:25.441Z,34.38
2022-08-31T15:48:10.584Z,33.25
2022-08-31T15:50:37.377Z,33.49
2022-08-31T15:53:10.019Z,33.88
2022-08-31T15:55:40.966Z,33.98
2022-08-31T15:58:09.829Z,33.89
2022-08-31T16:00:37.555Z,33.48
2022-08-31T16:03:06.329Z,34.10
2022-08-31T16:05:39.388Z,33.29
2022-08-31T16:08:11.433Z,35.00
2022-08-31T16:10:46.635Z,33.03
2022-08-31T16:13:16.018Z,33.48
2022-08-31T16:15:50.634Z,33.41
2022-08-31T16:18:19.504Z,34.02
2022-08-31T16:20:50.420Z,33.73
2022-08-31T16:23:17.668Z,33.41
2022-08-31T16:25:48.230Z,33.23
2022-08-31T16:28:16.295Z,32.92
2022-08-31T16:30:43.967Z,33.00
2022-08-31T16:33:12.233Z,33.08
2022-08-31T16:35:39.698Z,32.95
2022-08-31T16:38:07.321Z,32.84
2022-08-31T16:40:35.600Z,33.71
2022-08-31T16:43:02.816Z,33.31
2022-08-31T16:45:29.663Z,33.31
2022-08-31T16:48:16.438Z,33.90
2022-08-31T16:50:47.730Z,33.91
2022-08-31T16:53:18.315Z,33.89
2022-08-31T16:55:47.562Z,33.94
2022-08-31T16:58:29.651Z,33.91
2022-08-31T17:01:12.801Z,33.34
2022-08-31T17:03:41.828Z,34.24
2022-08-31T17:06:08.788Z,35.62
2022-08-31T17:08:44.374Z,36.07
2022-08-31T17:11:32.247Z,37.19
2022-08-31T17:14:01.708Z,37.59
2022-08-31T17:16:34.948Z,37.96
2022-08-31T17:19:04.549Z,38.89
2022-08-31T17:21:32.083Z,39.47
2022-08-31T17:24:04.200Z,40.27
2022-08-31T17:26:35.197Z,40.63
2022-08-31T17:29:02.957Z,41.74
2022-08-31T17:31:42.452Z,42.79
2022-08-31T17:34:27.044Z,42.55
2022-08-31T17:36:55.440Z,42.24
2022-08-31T17:39:23.339Z,44.57
2022-08-31T17:41:51.546Z,44.26
2022-08-31T17:44:20.546Z,44.54
2022-08-31T17:46:50.189Z,44.98
2022-08-31T17:49:20.847Z,46.20
2022-08-31T17:51:49.611Z,47.19
2022-08-31T17:54:20.139Z,47.24
2022-08-31T17:56:53.687Z,48.00
2022-08-31T17:59:28.436Z,48.09
2022-08-31T18:01:57.037Z,47.85
2022-08-31T18:04:25.858Z,49.72
2022-08-31T18:06:55.198Z,48.62
2022-08-31T18:09:28.617Z,47.78
2022-08-31T18:11:56.088Z,48.60
2022-08-31T18:14:26.703Z,49.42
2022-08-31T18:16:55.908Z,49.27
2022-08-31T18:19:27.595Z,52.38
2022-08-31T18:21:58.866Z,51.13
2022-08-31T18:24:26.195Z,54.00
2022-08-31T18:26:53.402Z,53.36
2022-08-31T18:29:25.013Z,54.41
2022-08-31T18:31:54.328Z,56.99
2022-08-31T18:34:23.968Z,49.29
2022-08-31T18:36:53.391Z,47.75
2022-08-31T18:39:47.747Z,48.47
2022-08-31T18:42:32.263Z,47.30
2022-08-31T18:45:18.585Z,49.53
2022-08-31T18:48:07.066Z,49.40
2022-08-31T18:50:37.235Z,48.06
2022-08-31T18:53:10.821Z,47.90
2022-08-31T18:55:38.633Z,48.06
2022-08-31T18:58:05.465Z,48.04
2022-08-31T19:00:33.386Z,49.12
2022-08-31T19:03:02.460Z,48.95
2022-08-31T19:05:31.746Z,48.78
2022-08-31T19:08:00.788Z,52.31
2022-08-31T19:10:28.226Z,55.52
2022-08-31T19:12:58.738Z,58.55
2022-08-31T19:15:35.400Z,62.32
2022-08-31T19:18:05.681Z,65.48
2022-08-31T19:20:33.676Z,66.02
2022-08-31T19:23:00.740Z,67.04
2022-08-31T19:25:27.903Z,67.40
2022-08-31T19:27:56.029Z,67.95
2022-08-31T19:30:27.927Z,67.51
2022-08-31T19:32:56.782Z,68.64
2022-08-31T19:35:27.025Z,69.00
2022-08-31T19:37:56.780Z,68.97
2022-08-31T19:40:43.305Z,69.46
2022-08-31T19:46:16.024Z,72.13
2022-08-31T19:48:44.861Z,72.53
2022-08-31T19:51:14.950Z,76.69
2022-08-31T19:53:46.255Z,78.77
2022-08-31T19:56:17.938Z,80.17
2022-08-31T19:58:49.173Z,80.68
2022-08-31T20:01:18.215Z,83.31
2022-08-31T20:03:48.286Z,83.73
2022-08-31T20:06:17.154Z,84.27
2022-08-31T20:08:47.906Z,82.39
2022-08-31T20:11:21.302Z,84.75
2022-08-31T20:13:49.407Z,93.33
2022-08-31T20:16:17.892Z,94.18
2022-08-31T20:18:46.572Z,100.00
2022-08-31T20:21:17.411Z,100.00
2022-08-31T20:23:45.561Z,100.00
2022-08-31T20:26:12.465Z,100.00
2022-08-31T20:28:40.825Z,100.00
2022-08-31T20:31:11.220Z,100.00
2022-08-31T20:33:39.019Z,100.00
2022-08-31T20:36:22.794Z,100.00
2022-08-31T20:38:57.083Z,100.00
2022-08-31T20:41:25.403Z,100.00
2022-08-31T20:43:52.324Z,100.00
2022-08-31T20:46:38.023Z,100.00
2022-08-31T20:49:23.537Z,100.00
2022-08-31T20:51:51.257Z,100.00
2022-08-31T20:54:18.266Z,100.00
2022-08-31T20:56:45.748Z,100.00
2022-08-31T20:59:12.517Z,100.00
2022-08-31T21:01:40.541Z,100.00
2022-08-31T21:04:08.328Z,100.00
2022-08-31T21:06:37.199Z,100.00
2022-08-31T21:09:04.135Z,100.00
2022-08-31T21:11:35.753Z,100.00
2022-08-31T21:14:03.485Z,100.00
2022-08-31T21:16:32.399Z,100.00
2022-08-31T21:18:59.206Z,100.00
2022-08-31T21:21:26.552Z,100.00
2022-08-31T21:23:53.338Z,100.00
2022-08-31T21:26:24.517Z,100.00
2022-08-31T21:28:54.076Z,100.00
2022-08-31T21:31:29.035Z,100.00
2022-08-31T21:34:02.024Z,100.00
2022-08-31T21:36:32.839Z,100.00
2022-08-31T21:39:00.030Z,100.00
2022-08-31T21:41:28.773Z,100.00
2022-08-31T21:43:57.176Z,100.00
2022-08-31T21:46:27.001Z,100.00
2022-08-31T21:48:56.516Z,100.00
2022-08-31T21:51:26.846Z,100.00
2022-08-31T21:53:55.783Z,100.00
2022-08-31T21:56:25.023Z,100.00
2022-08-31T21:58:51.927Z,100.00
2022-08-31T22:01:20.382Z,100.00
2022-08-31T22:03:48.467Z,100.00
2022-08-31T22:06:26.805Z,100.00
2022-08-31T22:09:00.386Z,100.00
2022-08-31T22:11:30.549Z,100.00
2022-08-31T22:13:59.183Z,100.00
2022-08-31T22:16:26.647Z,100.00
2022-08-31T22:19:01.324Z,100.00
2022-08-31T22:21:32.314Z,100.00
2022-08-31T22:24:02.111Z,100.00
2022-08-31T22:26:30.521Z,100.00
2022-08-31T22:28:57.456Z,100.00
2022-08-31T22:31:25.386Z,100.00
2022-08-31T22:33:52.394Z,100.00
2022-08-31T22:36:31.908Z,100.00
2022-08-31T22:39:11.356Z,100.00
2022-08-31T22:41:40.704Z,100.00
2022-08-31T22:44:10.669Z,100.00
2022-08-31T22:46:38.477Z,100.00
2022-08-31T22:49:06.258Z,100.00
2022-08-31T22:51:33.756Z,100.00
2022-08-31T22:54:00.521Z,100.00
2022-08-31T22:56:30.264Z,100.00
2022-08-31T22:58:59.823Z,100.00
2022-08-31T23:01:33.702Z,100.00
2022-08-31T23:04:06.125Z,100.00
2022-08-31T23:06:34.791Z,100.00
2022-08-31T23:09:02.888Z,100.00
2022-08-31T23:11:30.042Z,100.00
2022-08-31T23:14:00.296Z,100.00
2022-08-31T23:16:33.602Z,100.00
2022-08-31T23:19:12.303Z,100.00
2022-08-31T23:21:46.111Z,100.00
2022-08-31T23:24:33.681Z,100.00
2022-08-31T23:27:04.628Z,100.00
2022-08-31T23:29:34.939Z,100.00
2022-08-31T23:32:03.081Z,100.00
2022-08-31T23:34:30.422Z,100.00
2022-08-31T23:36:57.718Z,100.00
2022-08-31T23:39:24.799Z,100.00
2022-08-31T23:41:53.337Z,100.00
2022-08-31T23:44:21.293Z,100.00
2022-08-31T23:46:49.267Z,100.00
2022-08-31T23:49:18.749Z,100.00
2022-08-31T23:51:46.027Z,100.00
2022-08-31T23:54:15.828Z,100.00
2022-08-31T23:56:46.076Z,100.00
2022-08-31T23:59:19.807Z,100.00
